sensor_id;sensor_type;location;lat;lon;timestamp;P1;durP1;ratioP1;P2;durP2;ratioP2
10041;SDS011;5061;49.068;12.058;2024-01-27T00:03:00;3.70;;;1.93;;
10041;SDS011;5061;49.068;12.058;2024-01-27T00:06:20;5.70;;;2.30;;
10041;SDS011;5061;49.068;12.058;2024-01-27T00:09:41;6.13;;;2.10;;
10041;SDS011;5061;49.068;12.058;2024-01-27T00:13:01;2.80;;;2.17;;
10041;SDS011;5061;49.068;12.058;2024-01-27T00:16:22;7.83;;;1.80;;
10041;SDS011;5061;49.068;12.058;2024-01-27T00:19:43;6.83;;;2.03;;
10041;SDS011;5061;49.068;12.058;2024-01-27T00:23:03;4.63;;;1.87;;
10041;SDS011;5061;49.068;12.058;2024-01-27T00:26:24;5.40;;;2.10;;
10041;SDS011;5061;49.068;12.058;2024-01-27T00:29:44;4.27;;;1.63;;
10041;SDS011;5061;49.068;12.058;2024-01-27T00:33:05;2.03;;;1.53;;
10041;SDS011;5061;49.068;12.058;2024-01-27T00:36:26;3.73;;;2.43;;
10041;SDS011;5061;49.068;12.058;2024-01-27T00:39:47;5.23;;;1.93;;
10041;SDS011;5061;49.068;12.058;2024-01-27T00:43:08;4.10;;;1.83;;
10041;SDS011;5061;49.068;12.058;2024-01-27T00:46:28;4.97;;;1.87;;
10041;SDS011;5061;49.068;12.058;2024-01-27T00:49:49;4.53;;;1.53;;
10041;SDS011;5061;49.068;12.058;2024-01-27T00:53:09;7.60;;;3.00;;
10041;SDS011;5061;49.068;12.058;2024-01-27T00:56:30;4.57;;;1.63;;
10041;SDS011;5061;49.068;12.058;2024-01-27T00:59:50;4.00;;;1.97;;
10041;SDS011;5061;49.068;12.058;2024-01-27T01:03:11;3.50;;;2.00;;
10041;SDS011;5061;49.068;12.058;2024-01-27T01:06:32;6.10;;;2.00;;
10041;SDS011;5061;49.068;12.058;2024-01-27T01:09:52;7.70;;;2.67;;
10041;SDS011;5061;49.068;12.058;2024-01-27T01:13:13;6.30;;;2.90;;
10041;SDS011;5061;49.068;12.058;2024-01-27T01:16:33;5.73;;;1.80;;
10041;SDS011;5061;49.068;12.058;2024-01-27T01:19:54;5.17;;;1.80;;
10041;SDS011;5061;49.068;12.058;2024-01-27T01:23:15;4.60;;;1.87;;
10041;SDS011;5061;49.068;12.058;2024-01-27T01:26:35;5.23;;;2.43;;
10041;SDS011;5061;49.068;12.058;2024-01-27T01:29:56;8.60;;;2.60;;
10041;SDS011;5061;49.068;12.058;2024-01-27T01:33:16;5.43;;;2.43;;
10041;SDS011;5061;49.068;12.058;2024-01-27T01:36:37;4.70;;;1.90;;
10041;SDS011;5061;49.068;12.058;2024-01-27T01:39:58;5.73;;;1.70;;
10041;SDS011;5061;49.068;12.058;2024-01-27T01:43:18;6.77;;;2.63;;
10041;SDS011;5061;49.068;12.058;2024-01-27T01:46:39;7.97;;;2.20;;
10041;SDS011;5061;49.068;12.058;2024-01-27T01:50:00;8.97;;;3.57;;
10041;SDS011;5061;49.068;12.058;2024-01-27T01:53:21;7.53;;;2.43;;
10041;SDS011;5061;49.068;12.058;2024-01-27T01:56:43;9.97;;;3.10;;
10041;SDS011;5061;49.068;12.058;2024-01-27T02:00:03;8.07;;;2.70;;
10041;SDS011;5061;49.068;12.058;2024-01-27T02:03:24;5.50;;;2.47;;
10041;SDS011;5061;49.068;12.058;2024-01-27T02:06:45;5.57;;;2.20;;
10041;SDS011;5061;49.068;12.058;2024-01-27T02:10:13;6.63;;;2.10;;
10041;SDS011;5061;49.068;12.058;2024-01-27T02:13:38;2.93;;;1.90;;
10041;SDS011;5061;49.068;12.058;2024-01-27T02:16:59;7.43;;;2.20;;
10041;SDS011;5061;49.068;12.058;2024-01-27T02:20:19;4.40;;;1.80;;
10041;SDS011;5061;49.068;12.058;2024-01-27T02:23:40;6.53;;;2.40;;
10041;SDS011;5061;49.068;12.058;2024-01-27T02:27:01;4.97;;;2.23;;
10041;SDS011;5061;49.068;12.058;2024-01-27T02:30:21;5.67;;;1.80;;
10041;SDS011;5061;49.068;12.058;2024-01-27T02:33:42;3.63;;;1.93;;
10041;SDS011;5061;49.068;12.058;2024-01-27T02:37:02;5.23;;;2.40;;
10041;SDS011;5061;49.068;12.058;2024-01-27T02:40:23;7.57;;;2.03;;
10041;SDS011;5061;49.068;12.058;2024-01-27T02:43:44;5.50;;;2.03;;
10041;SDS011;5061;49.068;12.058;2024-01-27T02:47:04;9.50;;;2.30;;
10041;SDS011;5061;49.068;12.058;2024-01-27T02:50:25;7.90;;;2.33;;
10041;SDS011;5061;49.068;12.058;2024-01-27T02:53:46;16.53;;;2.60;;
10041;SDS011;5061;49.068;12.058;2024-01-27T02:57:07;7.07;;;2.70;;
10041;SDS011;5061;49.068;12.058;2024-01-27T03:00:28;7.23;;;2.80;;
10041;SDS011;5061;49.068;12.058;2024-01-27T03:03:48;3.30;;;1.80;;
10041;SDS011;5061;49.068;12.058;2024-01-27T03:07:09;6.70;;;1.83;;
10041;SDS011;5061;49.068;12.058;2024-01-27T03:10:30;6.57;;;2.00;;
10041;SDS011;5061;49.068;12.058;2024-01-27T03:13:51;5.77;;;2.23;;
10041;SDS011;5061;49.068;12.058;2024-01-27T03:17:11;4.40;;;2.47;;
10041;SDS011;5061;49.068;12.058;2024-01-27T03:20:32;6.10;;;2.57;;
10041;SDS011;5061;49.068;12.058;2024-01-27T03:23:52;4.63;;;2.10;;
10041;SDS011;5061;49.068;12.058;2024-01-27T03:27:13;10.53;;;2.47;;
10041;SDS011;5061;49.068;12.058;2024-01-27T03:30:34;10.40;;;3.13;;
10041;SDS011;5061;49.068;12.058;2024-01-27T03:33:54;15.40;;;3.33;;
10041;SDS011;5061;49.068;12.058;2024-01-27T03:37:16;6.70;;;2.37;;
10041;SDS011;5061;49.068;12.058;2024-01-27T03:40:37;5.50;;;1.83;;
10041;SDS011;5061;49.068;12.058;2024-01-27T03:43:57;6.37;;;3.20;;
10041;SDS011;5061;49.068;12.058;2024-01-27T03:47:18;10.43;;;2.83;;
10041;SDS011;5061;49.068;12.058;2024-01-27T03:50:39;4.77;;;2.20;;
10041;SDS011;5061;49.068;12.058;2024-01-27T03:53:59;20.27;;;2.90;;
10041;SDS011;5061;49.068;12.058;2024-01-27T03:57:20;6.40;;;3.97;;
10041;SDS011;5061;49.068;12.058;2024-01-27T04:00:41;6.43;;;2.60;;
10041;SDS011;5061;49.068;12.058;2024-01-27T04:04:01;10.30;;;2.50;;
10041;SDS011;5061;49.068;12.058;2024-01-27T04:07:22;9.63;;;2.57;;
10041;SDS011;5061;49.068;12.058;2024-01-27T04:10:42;3.80;;;2.00;;
10041;SDS011;5061;49.068;12.058;2024-01-27T04:14:03;8.80;;;2.70;;
10041;SDS011;5061;49.068;12.058;2024-01-27T04:17:25;14.70;;;3.40;;
10041;SDS011;5061;49.068;12.058;2024-01-27T04:20:45;7.27;;;2.87;;
10041;SDS011;5061;49.068;12.058;2024-01-27T04:24:06;8.80;;;2.80;;
10041;SDS011;5061;49.068;12.058;2024-01-27T04:27:27;5.73;;;2.77;;
10041;SDS011;5061;49.068;12.058;2024-01-27T04:30:47;4.50;;;2.43;;
10041;SDS011;5061;49.068;12.058;2024-01-27T04:34:08;8.90;;;2.47;;
10041;SDS011;5061;49.068;12.058;2024-01-27T04:37:29;15.37;;;3.70;;
10041;SDS011;5061;49.068;12.058;2024-01-27T04:40:50;10.43;;;2.40;;
10041;SDS011;5061;49.068;12.058;2024-01-27T04:44:11;7.30;;;2.20;;
10041;SDS011;5061;49.068;12.058;2024-01-27T04:47:31;3.00;;;2.33;;
10041;SDS011;5061;49.068;12.058;2024-01-27T04:50:52;4.10;;;2.00;;
10041;SDS011;5061;49.068;12.058;2024-01-27T04:54:12;3.37;;;2.07;;
10041;SDS011;5061;49.068;12.058;2024-01-27T04:57:33;6.77;;;2.13;;
10041;SDS011;5061;49.068;12.058;2024-01-27T05:00:53;3.60;;;1.60;;
10041;SDS011;5061;49.068;12.058;2024-01-27T05:04:14;3.87;;;1.90;;
10041;SDS011;5061;49.068;12.058;2024-01-27T05:07:35;2.80;;;1.93;;
10041;SDS011;5061;49.068;12.058;2024-01-27T05:10:55;4.40;;;1.67;;
10041;SDS011;5061;49.068;12.058;2024-01-27T05:14:16;5.17;;;1.60;;
10041;SDS011;5061;49.068;12.058;2024-01-27T05:17:36;2.97;;;1.77;;
10041;SDS011;5061;49.068;12.058;2024-01-27T05:20:57;2.50;;;1.30;;
10041;SDS011;5061;49.068;12.058;2024-01-27T05:24:18;5.70;;;1.50;;
10041;SDS011;5061;49.068;12.058;2024-01-27T05:27:39;3.33;;;2.10;;
10041;SDS011;5061;49.068;12.058;2024-01-27T05:31:00;3.40;;;1.87;;
10041;SDS011;5061;49.068;12.058;2024-01-27T05:34:20;4.30;;;1.97;;
10041;SDS011;5061;49.068;12.058;2024-01-27T05:37:41;2.90;;;1.50;;
10041;SDS011;5061;49.068;12.058;2024-01-27T05:41:02;5.07;;;1.87;;
10041;SDS011;5061;49.068;12.058;2024-01-27T05:44:23;4.63;;;2.30;;
10041;SDS011;5061;49.068;12.058;2024-01-27T05:47:43;2.43;;;1.70;;
10041;SDS011;5061;49.068;12.058;2024-01-27T05:51:04;2.50;;;1.57;;
10041;SDS011;5061;49.068;12.058;2024-01-27T05:54:24;7.40;;;1.70;;
10041;SDS011;5061;49.068;12.058;2024-01-27T05:57:45;12.03;;;2.07;;
10041;SDS011;5061;49.068;12.058;2024-01-27T06:01:06;9.13;;;1.60;;
10041;SDS011;5061;49.068;12.058;2024-01-27T06:04:28;3.67;;;1.70;;
10041;SDS011;5061;49.068;12.058;2024-01-27T06:07:51;3.80;;;2.07;;
10041;SDS011;5061;49.068;12.058;2024-01-27T06:11:11;3.87;;;2.03;;
10041;SDS011;5061;49.068;12.058;2024-01-27T06:14:32;4.57;;;1.87;;
10041;SDS011;5061;49.068;12.058;2024-01-27T06:17:53;2.67;;;1.90;;
10041;SDS011;5061;49.068;12.058;2024-01-27T06:21:13;4.13;;;1.80;;
10041;SDS011;5061;49.068;12.058;2024-01-27T06:24:34;8.37;;;2.33;;
10041;SDS011;5061;49.068;12.058;2024-01-27T06:27:54;7.63;;;3.20;;
10041;SDS011;5061;49.068;12.058;2024-01-27T06:31:15;4.43;;;1.73;;
10041;SDS011;5061;49.068;12.058;2024-01-27T06:34:36;2.77;;;2.00;;
10041;SDS011;5061;49.068;12.058;2024-01-27T06:37:56;2.43;;;1.73;;
10041;SDS011;5061;49.068;12.058;2024-01-27T06:41:17;8.20;;;2.10;;
10041;SDS011;5061;49.068;12.058;2024-01-27T06:44:37;4.33;;;2.10;;
10041;SDS011;5061;49.068;12.058;2024-01-27T06:47:58;2.40;;;1.70;;
10041;SDS011;5061;49.068;12.058;2024-01-27T06:51:19;1.90;;;1.60;;
10041;SDS011;5061;49.068;12.058;2024-01-27T06:54:39;7.83;;;2.87;;
10041;SDS011;5061;49.068;12.058;2024-01-27T06:58:04;8.40;;;4.43;;
10041;SDS011;5061;49.068;12.058;2024-01-27T07:01:24;4.27;;;2.80;;
10041;SDS011;5061;49.068;12.058;2024-01-27T07:04:45;10.43;;;2.50;;
10041;SDS011;5061;49.068;12.058;2024-01-27T07:08:06;11.40;;;2.60;;
10041;SDS011;5061;49.068;12.058;2024-01-27T07:11:27;9.73;;;2.83;;
10041;SDS011;5061;49.068;12.058;2024-01-27T07:14:48;13.37;;;3.10;;
10041;SDS011;5061;49.068;12.058;2024-01-27T07:18:08;11.63;;;2.73;;
10041;SDS011;5061;49.068;12.058;2024-01-27T07:21:30;13.73;;;3.63;;
10041;SDS011;5061;49.068;12.058;2024-01-27T07:24:51;7.43;;;2.90;;
10041;SDS011;5061;49.068;12.058;2024-01-27T07:28:11;4.10;;;2.80;;
10041;SDS011;5061;49.068;12.058;2024-01-27T07:31:32;7.60;;;2.90;;
10041;SDS011;5061;49.068;12.058;2024-01-27T07:34:53;4.87;;;2.60;;
10041;SDS011;5061;49.068;12.058;2024-01-27T07:38:13;3.70;;;2.20;;
10041;SDS011;5061;49.068;12.058;2024-01-27T07:41:34;10.97;;;3.03;;
10041;SDS011;5061;49.068;12.058;2024-01-27T07:44:55;7.87;;;2.73;;
10041;SDS011;5061;49.068;12.058;2024-01-27T07:48:16;3.20;;;2.10;;
10041;SDS011;5061;49.068;12.058;2024-01-27T07:51:36;2.20;;;1.90;;
10041;SDS011;5061;49.068;12.058;2024-01-27T07:54:57;6.57;;;1.63;;
10041;SDS011;5061;49.068;12.058;2024-01-27T07:58:17;4.57;;;2.17;;
10041;SDS011;5061;49.068;12.058;2024-01-27T08:01:38;3.67;;;2.20;;
10041;SDS011;5061;49.068;12.058;2024-01-27T08:04:59;5.10;;;2.37;;
10041;SDS011;5061;49.068;12.058;2024-01-27T08:08:20;5.60;;;2.70;;
10041;SDS011;5061;49.068;12.058;2024-01-27T08:11:41;6.37;;;2.70;;
10041;SDS011;5061;49.068;12.058;2024-01-27T08:15:02;11.27;;;2.83;;
10041;SDS011;5061;49.068;12.058;2024-01-27T08:18:23;3.43;;;2.37;;
10041;SDS011;5061;49.068;12.058;2024-01-27T08:21:43;4.47;;;2.50;;
10041;SDS011;5061;49.068;12.058;2024-01-27T08:25:04;11.17;;;3.30;;
10041;SDS011;5061;49.068;12.058;2024-01-27T08:28:25;6.43;;;2.50;;
10041;SDS011;5061;49.068;12.058;2024-01-27T08:31:46;6.40;;;3.33;;
10041;SDS011;5061;49.068;12.058;2024-01-27T08:35:07;10.93;;;3.50;;
10041;SDS011;5061;49.068;12.058;2024-01-27T08:38:27;4.13;;;2.50;;
10041;SDS011;5061;49.068;12.058;2024-01-27T08:41:48;6.03;;;2.53;;
10041;SDS011;5061;49.068;12.058;2024-01-27T08:45:09;5.30;;;2.30;;
10041;SDS011;5061;49.068;12.058;2024-01-27T08:48:30;14.23;;;3.17;;
10041;SDS011;5061;49.068;12.058;2024-01-27T08:51:50;10.10;;;3.70;;
10041;SDS011;5061;49.068;12.058;2024-01-27T08:55:11;9.77;;;3.33;;
10041;SDS011;5061;49.068;12.058;2024-01-27T08:58:31;9.50;;;3.00;;
10041;SDS011;5061;49.068;12.058;2024-01-27T09:01:52;8.47;;;3.17;;
10041;SDS011;5061;49.068;12.058;2024-01-27T09:05:13;9.47;;;3.07;;
10041;SDS011;5061;49.068;12.058;2024-01-27T09:08:33;7.00;;;2.60;;
10041;SDS011;5061;49.068;12.058;2024-01-27T09:11:54;11.43;;;3.20;;
10041;SDS011;5061;49.068;12.058;2024-01-27T09:15:15;7.20;;;2.80;;
10041;SDS011;5061;49.068;12.058;2024-01-27T09:18:36;6.83;;;2.67;;
10041;SDS011;5061;49.068;12.058;2024-01-27T09:21:57;10.27;;;3.53;;
10041;SDS011;5061;49.068;12.058;2024-01-27T09:25:17;5.53;;;3.13;;
10041;SDS011;5061;49.068;12.058;2024-01-27T09:28:38;5.00;;;2.67;;
10041;SDS011;5061;49.068;12.058;2024-01-27T09:32:03;8.17;;;3.07;;
10041;SDS011;5061;49.068;12.058;2024-01-27T09:35:24;7.90;;;3.60;;
10041;SDS011;5061;49.068;12.058;2024-01-27T09:38:44;9.87;;;2.50;;
10041;SDS011;5061;49.068;12.058;2024-01-27T09:42:06;14.27;;;3.30;;
10041;SDS011;5061;49.068;12.058;2024-01-27T09:45:28;6.17;;;3.00;;
10041;SDS011;5061;49.068;12.058;2024-01-27T09:48:49;7.73;;;3.10;;
10041;SDS011;5061;49.068;12.058;2024-01-27T09:52:10;6.83;;;2.70;;
10041;SDS011;5061;49.068;12.058;2024-01-27T09:55:31;6.53;;;2.90;;
10041;SDS011;5061;49.068;12.058;2024-01-27T09:58:52;11.87;;;3.13;;
10041;SDS011;5061;49.068;12.058;2024-01-27T10:02:15;7.67;;;3.20;;
10041;SDS011;5061;49.068;12.058;2024-01-27T10:05:37;7.07;;;3.20;;
10041;SDS011;5061;49.068;12.058;2024-01-27T10:08:58;17.60;;;3.30;;
10041;SDS011;5061;49.068;12.058;2024-01-27T10:12:19;7.33;;;2.93;;
10041;SDS011;5061;49.068;12.058;2024-01-27T10:15:43;5.47;;;2.80;;
10041;SDS011;5061;49.068;12.058;2024-01-27T10:19:03;7.43;;;2.33;;
10041;SDS011;5061;49.068;12.058;2024-01-27T10:22:25;4.93;;;2.47;;
10041;SDS011;5061;49.068;12.058;2024-01-27T10:25:46;10.53;;;2.77;;
10041;SDS011;5061;49.068;12.058;2024-01-27T10:29:08;12.23;;;3.30;;
10041;SDS011;5061;49.068;12.058;2024-01-27T10:32:29;8.50;;;3.23;;
10041;SDS011;5061;49.068;12.058;2024-01-27T10:35:57;12.30;;;2.77;;
10041;SDS011;5061;49.068;12.058;2024-01-27T10:39:21;12.17;;;3.60;;
10041;SDS011;5061;49.068;12.058;2024-01-27T10:42:43;11.13;;;3.27;;
10041;SDS011;5061;49.068;12.058;2024-01-27T10:46:06;9.37;;;2.77;;
10041;SDS011;5061;49.068;12.058;2024-01-27T10:49:27;12.60;;;2.20;;
10041;SDS011;5061;49.068;12.058;2024-01-27T10:52:54;11.57;;;3.60;;
10041;SDS011;5061;49.068;12.058;2024-01-27T10:56:18;15.00;;;2.43;;
10041;SDS011;5061;49.068;12.058;2024-01-27T10:59:40;6.83;;;3.40;;
10041;SDS011;5061;49.068;12.058;2024-01-27T11:03:03;6.63;;;2.67;;
10041;SDS011;5061;49.068;12.058;2024-01-27T11:06:26;12.80;;;4.23;;
10041;SDS011;5061;49.068;12.058;2024-01-27T11:09:48;17.23;;;3.17;;
10041;SDS011;5061;49.068;12.058;2024-01-27T11:13:13;9.03;;;3.40;;
10041;SDS011;5061;49.068;12.058;2024-01-27T11:16:34;24.90;;;3.00;;
10041;SDS011;5061;49.068;12.058;2024-01-27T11:19:56;5.83;;;2.27;;
10041;SDS011;5061;49.068;12.058;2024-01-27T11:23:19;24.33;;;3.40;;
10041;SDS011;5061;49.068;12.058;2024-01-27T11:26:39;15.73;;;2.60;;
10041;SDS011;5061;49.068;12.058;2024-01-27T11:30:00;11.83;;;2.80;;
10041;SDS011;5061;49.068;12.058;2024-01-27T11:33:24;15.83;;;2.70;;
10041;SDS011;5061;49.068;12.058;2024-01-27T11:36:45;13.23;;;2.20;;
10041;SDS011;5061;49.068;12.058;2024-01-27T11:40:06;3.27;;;1.90;;
10041;SDS011;5061;49.068;12.058;2024-01-27T11:43:27;6.97;;;2.47;;
10041;SDS011;5061;49.068;12.058;2024-01-27T11:46:48;7.03;;;2.20;;
10041;SDS011;5061;49.068;12.058;2024-01-27T11:50:09;6.23;;;2.10;;
10041;SDS011;5061;49.068;12.058;2024-01-27T11:53:31;11.53;;;3.37;;
10041;SDS011;5061;49.068;12.058;2024-01-27T11:56:51;3.90;;;2.07;;
10041;SDS011;5061;49.068;12.058;2024-01-27T12:00:12;3.93;;;2.40;;
10041;SDS011;5061;49.068;12.058;2024-01-27T12:03:33;11.57;;;3.03;;
10041;SDS011;5061;49.068;12.058;2024-01-27T12:06:53;4.80;;;2.30;;
10041;SDS011;5061;49.068;12.058;2024-01-27T12:10:14;5.63;;;2.47;;
10041;SDS011;5061;49.068;12.058;2024-01-27T12:13:35;10.27;;;2.90;;
10041;SDS011;5061;49.068;12.058;2024-01-27T12:16:55;38.97;;;4.10;;
10041;SDS011;5061;49.068;12.058;2024-01-27T12:20:16;8.50;;;2.70;;
10041;SDS011;5061;49.068;12.058;2024-01-27T12:23:47;10.30;;;2.50;;
10041;SDS011;5061;49.068;12.058;2024-01-27T12:27:11;9.10;;;2.37;;
10041;SDS011;5061;49.068;12.058;2024-01-27T12:30:32;6.00;;;3.00;;
10041;SDS011;5061;49.068;12.058;2024-01-27T12:33:54;6.63;;;2.13;;
10041;SDS011;5061;49.068;12.058;2024-01-27T12:37:15;8.23;;;2.43;;
10041;SDS011;5061;49.068;12.058;2024-01-27T12:40:37;5.63;;;2.23;;
10041;SDS011;5061;49.068;12.058;2024-01-27T12:43:58;8.83;;;2.33;;
10041;SDS011;5061;49.068;12.058;2024-01-27T12:47:18;8.77;;;2.73;;
10041;SDS011;5061;49.068;12.058;2024-01-27T12:50:40;5.30;;;2.60;;
10041;SDS011;5061;49.068;12.058;2024-01-27T12:54:00;11.00;;;2.40;;
10041;SDS011;5061;49.068;12.058;2024-01-27T12:57:21;6.50;;;2.73;;
10041;SDS011;5061;49.068;12.058;2024-01-27T13:00:41;5.73;;;2.00;;
10041;SDS011;5061;49.068;12.058;2024-01-27T13:04:02;12.67;;;3.10;;
10041;SDS011;5061;49.068;12.058;2024-01-27T13:07:23;9.10;;;2.27;;
10041;SDS011;5061;49.068;12.058;2024-01-27T13:10:44;16.03;;;3.13;;
10041;SDS011;5061;49.068;12.058;2024-01-27T13:14:05;15.20;;;3.03;;
10041;SDS011;5061;49.068;12.058;2024-01-27T13:17:26;6.40;;;2.33;;
10041;SDS011;5061;49.068;12.058;2024-01-27T13:20:47;12.10;;;3.23;;
10041;SDS011;5061;49.068;12.058;2024-01-27T13:24:07;5.10;;;1.93;;
10041;SDS011;5061;49.068;12.058;2024-01-27T13:27:29;8.43;;;1.83;;
10041;SDS011;5061;49.068;12.058;2024-01-27T13:30:49;9.67;;;2.33;;
10041;SDS011;5061;49.068;12.058;2024-01-27T13:34:10;7.67;;;2.40;;
10041;SDS011;5061;49.068;12.058;2024-01-27T13:37:31;8.00;;;2.37;;
10041;SDS011;5061;49.068;12.058;2024-01-27T13:40:53;4.07;;;1.67;;
10041;SDS011;5061;49.068;12.058;2024-01-27T13:44:14;11.37;;;2.20;;
10041;SDS011;5061;49.068;12.058;2024-01-27T13:47:34;8.80;;;2.27;;
10041;SDS011;5061;49.068;12.058;2024-01-27T13:50:55;8.33;;;2.53;;
10041;SDS011;5061;49.068;12.058;2024-01-27T13:54:16;4.40;;;2.73;;
10041;SDS011;5061;49.068;12.058;2024-01-27T13:57:36;7.70;;;2.40;;
10041;SDS011;5061;49.068;12.058;2024-01-27T14:00:58;9.33;;;2.60;;
10041;SDS011;5061;49.068;12.058;2024-01-27T14:04:19;10.80;;;3.83;;
10041;SDS011;5061;49.068;12.058;2024-01-27T14:07:40;9.57;;;3.23;;
10041;SDS011;5061;49.068;12.058;2024-01-27T14:11:00;6.27;;;2.73;;
10041;SDS011;5061;49.068;12.058;2024-01-27T14:14:21;12.83;;;2.80;;
10041;SDS011;5061;49.068;12.058;2024-01-27T14:17:42;13.10;;;2.83;;
10041;SDS011;5061;49.068;12.058;2024-01-27T14:21:02;9.23;;;2.23;;
10041;SDS011;5061;49.068;12.058;2024-01-27T14:24:23;12.10;;;3.13;;
10041;SDS011;5061;49.068;12.058;2024-01-27T14:27:44;12.03;;;2.80;;
10041;SDS011;5061;49.068;12.058;2024-01-27T14:31:05;5.80;;;2.43;;
10041;SDS011;5061;49.068;12.058;2024-01-27T14:34:26;8.73;;;2.80;;
10041;SDS011;5061;49.068;12.058;2024-01-27T14:37:46;10.43;;;2.30;;
10041;SDS011;5061;49.068;12.058;2024-01-27T14:41:07;3.80;;;2.40;;
10041;SDS011;5061;49.068;12.058;2024-01-27T14:44:28;11.43;;;2.47;;
10041;SDS011;5061;49.068;12.058;2024-01-27T14:47:49;6.60;;;3.60;;
10041;SDS011;5061;49.068;12.058;2024-01-27T14:51:09;5.60;;;2.53;;
10041;SDS011;5061;49.068;12.058;2024-01-27T14:54:30;7.70;;;2.63;;
10041;SDS011;5061;49.068;12.058;2024-01-27T14:57:51;5.13;;;2.53;;
10041;SDS011;5061;49.068;12.058;2024-01-27T15:01:12;7.80;;;2.93;;
10041;SDS011;5061;49.068;12.058;2024-01-27T15:04:32;6.23;;;2.63;;
10041;SDS011;5061;49.068;12.058;2024-01-27T15:07:53;11.90;;;2.50;;
10041;SDS011;5061;49.068;12.058;2024-01-27T15:11:14;5.50;;;1.77;;
10041;SDS011;5061;49.068;12.058;2024-01-27T15:14:34;7.50;;;2.20;;
10041;SDS011;5061;49.068;12.058;2024-01-27T15:17:55;6.33;;;2.23;;
10041;SDS011;5061;49.068;12.058;2024-01-27T15:21:20;7.10;;;2.70;;
10041;SDS011;5061;49.068;12.058;2024-01-27T15:24:40;6.03;;;2.53;;
10041;SDS011;5061;49.068;12.058;2024-01-27T15:28:01;7.40;;;2.47;;
10041;SDS011;5061;49.068;12.058;2024-01-27T15:31:22;10.90;;;2.73;;
10041;SDS011;5061;49.068;12.058;2024-01-27T15:34:42;7.10;;;2.37;;
10041;SDS011;5061;49.068;12.058;2024-01-27T15:38:04;4.17;;;2.33;;
10041;SDS011;5061;49.068;12.058;2024-01-27T15:41:24;8.07;;;2.83;;
10041;SDS011;5061;49.068;12.058;2024-01-27T15:44:45;3.93;;;2.03;;
10041;SDS011;5061;49.068;12.058;2024-01-27T15:48:06;5.57;;;1.90;;
10041;SDS011;5061;49.068;12.058;2024-01-27T15:51:26;7.80;;;2.60;;
10041;SDS011;5061;49.068;12.058;2024-01-27T15:54:47;4.83;;;1.67;;
10041;SDS011;5061;49.068;12.058;2024-01-27T15:58:09;4.63;;;1.60;;
10041;SDS011;5061;49.068;12.058;2024-01-27T16:01:29;2.50;;;1.53;;
10041;SDS011;5061;49.068;12.058;2024-01-27T16:04:50;2.60;;;1.67;;
10041;SDS011;5061;49.068;12.058;2024-01-27T16:08:11;4.90;;;1.60;;
10041;SDS011;5061;49.068;12.058;2024-01-27T16:11:32;3.83;;;1.53;;
10041;SDS011;5061;49.068;12.058;2024-01-27T16:14:52;4.13;;;1.83;;
10041;SDS011;5061;49.068;12.058;2024-01-27T16:18:13;1.60;;;1.17;;
10041;SDS011;5061;49.068;12.058;2024-01-27T16:21:34;1.93;;;1.57;;
10041;SDS011;5061;49.068;12.058;2024-01-27T16:24:55;2.20;;;1.50;;
10041;SDS011;5061;49.068;12.058;2024-01-27T16:28:16;2.57;;;1.47;;
10041;SDS011;5061;49.068;12.058;2024-01-27T16:31:38;2.30;;;1.60;;
10041;SDS011;5061;49.068;12.058;2024-01-27T16:34:58;4.93;;;2.27;;
10041;SDS011;5061;49.068;12.058;2024-01-27T16:38:19;3.27;;;1.30;;
10041;SDS011;5061;49.068;12.058;2024-01-27T16:41:40;8.03;;;1.63;;
10041;SDS011;5061;49.068;12.058;2024-01-27T16:45:00;7.73;;;2.00;;
10041;SDS011;5061;49.068;12.058;2024-01-27T16:48:21;5.97;;;2.53;;
10041;SDS011;5061;49.068;12.058;2024-01-27T16:51:42;7.30;;;3.60;;
10041;SDS011;5061;49.068;12.058;2024-01-27T16:55:03;11.43;;;2.83;;
10041;SDS011;5061;49.068;12.058;2024-01-27T16:58:24;5.50;;;2.23;;
10041;SDS011;5061;49.068;12.058;2024-01-27T17:01:45;2.67;;;1.70;;
10041;SDS011;5061;49.068;12.058;2024-01-27T17:05:05;4.70;;;2.17;;
10041;SDS011;5061;49.068;12.058;2024-01-27T17:08:26;3.23;;;1.70;;
10041;SDS011;5061;49.068;12.058;2024-01-27T17:11:47;3.47;;;1.90;;
10041;SDS011;5061;49.068;12.058;2024-01-27T17:15:07;2.57;;;1.50;;
10041;SDS011;5061;49.068;12.058;2024-01-27T17:18:28;5.43;;;1.83;;
10041;SDS011;5061;49.068;12.058;2024-01-27T17:21:49;9.60;;;2.97;;
10041;SDS011;5061;49.068;12.058;2024-01-27T17:25:10;5.37;;;2.13;;
10041;SDS011;5061;49.068;12.058;2024-01-27T17:28:30;4.23;;;1.87;;
10041;SDS011;5061;49.068;12.058;2024-01-27T17:31:51;3.50;;;2.00;;
10041;SDS011;5061;49.068;12.058;2024-01-27T17:35:12;8.73;;;2.67;;
10041;SDS011;5061;49.068;12.058;2024-01-27T17:38:34;3.07;;;1.63;;
10041;SDS011;5061;49.068;12.058;2024-01-27T17:41:54;4.53;;;1.90;;
10041;SDS011;5061;49.068;12.058;2024-01-27T17:45:15;4.60;;;2.27;;
10041;SDS011;5061;49.068;12.058;2024-01-27T17:48:36;2.83;;;1.80;;
10041;SDS011;5061;49.068;12.058;2024-01-27T17:51:57;2.50;;;2.00;;
10041;SDS011;5061;49.068;12.058;2024-01-27T17:55:18;6.17;;;2.33;;
10041;SDS011;5061;49.068;12.058;2024-01-27T17:58:39;7.90;;;2.20;;
10041;SDS011;5061;49.068;12.058;2024-01-27T18:02:00;5.40;;;2.43;;
10041;SDS011;5061;49.068;12.058;2024-01-27T18:05:21;6.70;;;2.70;;
10041;SDS011;5061;49.068;12.058;2024-01-27T18:08:42;9.50;;;2.53;;
10041;SDS011;5061;49.068;12.058;2024-01-27T18:12:02;7.40;;;2.63;;
10041;SDS011;5061;49.068;12.058;2024-01-27T18:15:23;4.70;;;2.93;;
10041;SDS011;5061;49.068;12.058;2024-01-27T18:18:44;3.57;;;2.50;;
10041;SDS011;5061;49.068;12.058;2024-01-27T18:22:05;5.67;;;2.77;;
10041;SDS011;5061;49.068;12.058;2024-01-27T18:25:26;3.50;;;2.77;;
10041;SDS011;5061;49.068;12.058;2024-01-27T18:28:47;4.00;;;2.53;;
10041;SDS011;5061;49.068;12.058;2024-01-27T18:32:08;4.33;;;2.93;;
10041;SDS011;5061;49.068;12.058;2024-01-27T18:35:29;8.97;;;3.50;;
10041;SDS011;5061;49.068;12.058;2024-01-27T18:38:49;11.90;;;4.63;;
10041;SDS011;5061;49.068;12.058;2024-01-27T18:42:10;6.47;;;4.47;;
10041;SDS011;5061;49.068;12.058;2024-01-27T18:45:31;9.67;;;5.20;;
10041;SDS011;5061;49.068;12.058;2024-01-27T18:48:51;23.27;;;5.47;;
10041;SDS011;5061;49.068;12.058;2024-01-27T18:52:12;9.73;;;4.50;;
10041;SDS011;5061;49.068;12.058;2024-01-27T18:55:33;15.87;;;6.30;;
10041;SDS011;5061;49.068;12.058;2024-01-27T18:58:57;10.50;;;4.60;;
10041;SDS011;5061;49.068;12.058;2024-01-27T19:02:18;9.70;;;4.00;;
10041;SDS011;5061;49.068;12.058;2024-01-27T19:05:38;11.03;;;3.90;;
10041;SDS011;5061;49.068;12.058;2024-01-27T19:08:59;9.10;;;4.50;;
10041;SDS011;5061;49.068;12.058;2024-01-27T19:12:20;11.00;;;5.87;;
10041;SDS011;5061;49.068;12.058;2024-01-27T19:15:40;13.00;;;5.40;;
10041;SDS011;5061;49.068;12.058;2024-01-27T19:19:01;9.63;;;5.13;;
10041;SDS011;5061;49.068;12.058;2024-01-27T19:22:23;9.03;;;4.00;;
10041;SDS011;5061;49.068;12.058;2024-01-27T19:25:44;10.43;;;4.30;;
10041;SDS011;5061;49.068;12.058;2024-01-27T19:29:04;6.27;;;3.63;;
10041;SDS011;5061;49.068;12.058;2024-01-27T19:32:25;7.13;;;3.50;;
10041;SDS011;5061;49.068;12.058;2024-01-27T19:35:45;8.77;;;4.20;;
10041;SDS011;5061;49.068;12.058;2024-01-27T19:39:07;12.20;;;5.17;;
10041;SDS011;5061;49.068;12.058;2024-01-27T19:42:30;8.60;;;4.63;;
10041;SDS011;5061;49.068;12.058;2024-01-27T19:45:51;11.70;;;4.80;;
10041;SDS011;5061;49.068;12.058;2024-01-27T19:49:11;12.47;;;5.00;;
10041;SDS011;5061;49.068;12.058;2024-01-27T19:52:32;7.50;;;4.90;;
10041;SDS011;5061;49.068;12.058;2024-01-27T19:55:52;12.10;;;5.10;;
10041;SDS011;5061;49.068;12.058;2024-01-27T19:59:13;7.70;;;4.47;;
10041;SDS011;5061;49.068;12.058;2024-01-27T20:02:34;12.90;;;4.70;;
10041;SDS011;5061;49.068;12.058;2024-01-27T20:05:54;6.37;;;3.90;;
10041;SDS011;5061;49.068;12.058;2024-01-27T20:09:15;11.83;;;5.37;;